Time;durP1;ratioP1;P1;durP2;ratioP2;P2;SDS_P1;SDS_P2;PMS_P1;PMS_P2;Temp;Humidity;BMP_temperature;BMP_pressure;BME280_temperature;BME280_humidity;BME280_pressure;Samples;Min_cycle;Max_cycle;Signal;HPM_P1;HPM_P2
2022/08/21 00:01:33;;;;;;;2.42;1.10;;;;;;;19.75;100.00;94266.66;5039692;28;20036;-92
2022/08/21 00:04:07;;;;;;;1.17;0.90;;;;;;;19.63;100.00;94272.72;5039960;28;20029;-92
2022/08/21 00:06:33;;;;;;;10.80;1.25;;;;;;;19.40;100.00;94277.63;5039672;28;20036;-92
2022/08/21 00:08:59;;;;;;;2.38;1.20;;;;;;;19.14;100.00;94262.66;5039547;28;20029;-91
2022/08/21 00:11:26;;;;;;;4.03;0.90;;;;;;;18.84;100.00;94268.00;5039571;28;20079;-90
2022/08/21 00:13:52;;;;;;;1.13;0.90;;;;;;;18.70;100.00;94266.34;5055901;28;20021;-90
2022/08/21 00:16:18;;;;;;;2.20;1.00;;;;;;;18.79;100.00;94275.06;5055755;28;20444;-90
2022/08/21 00:18:43;;;;;;;0.80;0.80;;;;;;;18.72;100.00;94271.34;5039620;28;20029;-89
2022/08/21 00:21:11;;;;;;;1.63;1.08;;;;;;;18.56;100.00;94261.28;5055944;28;20035;-89
2022/08/21 00:23:37;;;;;;;3.38;1.13;;;;;;;18.44;100.00;94269.91;5039272;28;20021;-90
2022/08/21 00:26:03;;;;;;;1.52;1.10;;;;;;;18.35;100.00;94269.19;5039452;28;20422;-90
2022/08/21 00:28:28;;;;;;;4.43;1.40;;;;;;;18.16;100.00;94259.75;5039181;28;20341;-89
2022/08/21 00:30:54;;;;;;;1.27;1.02;;;;;;;18.06;100.00;94266.19;5057276;28;20033;-90
2022/08/21 00:33:20;;;;;;;4.35;0.88;;;;;;;18.02;100.00;94262.59;5055421;28;20021;-90
2022/08/21 00:35:45;;;;;;;3.65;1.20;;;;;;;18.11;100.00;94259.13;5039431;28;20032;-88
2022/08/21 00:38:11;;;;;;;2.65;1.10;;;;;;;18.14;100.00;94259.28;5039227;28;20034;-89
2022/08/21 00:40:43;;;;;;;1.15;1.00;;;;;;;18.25;100.00;94269.56;5055290;28;20025;-89
2022/08/21 00:43:11;;;;;;;1.25;0.93;;;;;;;18.14;100.00;94266.44;5039198;28;20030;-91
2022/08/21 00:45:37;;;;;;;3.63;1.08;;;;;;;18.14;100.00;94271.75;5039036;28;20033;-90
2022/08/21 00:48:03;;;;;;;1.40;1.10;;;;;;;18.15;100.00;94268.78;5055418;28;20029;-91
2022/08/21 00:50:32;;;;;;;3.22;1.00;;;;;;;18.13;100.00;94271.00;5055661;28;20029;-90
2022/08/21 00:52:59;;;;;;;2.08;1.00;;;;;;;18.39;100.00;94279.94;5039337;28;20024;-91
2022/08/21 00:55:24;;;;;;;1.40;1.30;;;;;;;18.67;100.00;94268.88;5055352;28;20024;-90
2022/08/21 00:57:55;;;;;;;4.35;1.35;;;;;;;18.44;100.00;94267.28;5039021;28;20427;-91
2022/08/21 01:00:28;;;;;;;3.17;1.15;;;;;;;18.58;100.00;94269.72;5039605;28;20411;-91
2022/08/21 01:02:55;;;;;;;2.70;1.20;;;;;;;18.47;100.00;94269.28;5055353;28;20057;-93
2022/08/21 01:05:21;;;;;;;1.23;1.02;;;;;;;18.43;100.00;94259.63;5039166;28;20143;-91
2022/08/21 01:07:46;;;;;;;1.08;0.90;;;;;;;18.48;100.00;94265.53;5039263;28;20049;-91
2022/08/21 01:10:12;;;;;;;1.88;1.25;;;;;;;18.55;100.00;94261.59;5038876;28;20024;-91
2022/08/21 01:12:39;;;;;;;3.28;1.40;;;;;;;18.47;100.00;94258.66;5055237;28;20430;-91
2022/08/21 01:15:06;;;;;;;1.10;0.98;;;;;;;18.36;100.00;94254.81;5038591;28;20032;-90
2022/08/21 01:17:32;;;;;;;3.60;1.10;;;;;;;18.34;100.00;94254.34;5055218;28;20025;-91
2022/08/21 01:19:59;;;;;;;1.63;1.20;;;;;;;18.27;100.00;94249.56;5038916;28;20025;-90
2022/08/21 01:22:24;;;;;;;2.20;0.95;;;;;;;18.23;100.00;94241.47;5055346;28;20071;-91
2022/08/21 01:24:50;;;;;;;1.30;1.05;;;;;;;18.19;100.00;94245.84;5055646;28;20025;-90
2022/08/21 01:27:16;;;;;;;5.00;1.40;;;;;;;18.18;100.00;94248.81;5039395;28;20036;-91
2022/08/21 01:29:47;;;;;;;5.07;1.00;;;;;;;18.23;100.00;94251.28;5055256;28;20346;-91
2022/08/21 01:32:15;;;;;;;3.65;1.20;;;;;;;18.14;100.00;94251.34;5055286;28;20033;-90
2022/08/21 01:34:44;;;;;;;2.20;1.00;;;;;;;18.14;100.00;94251.34;5056215;28;20032;-90
2022/08/21 01:37:10;;;;;;;1.45;1.20;;;;;;;18.01;100.00;94253.06;5056223;28;20032;-91
2022/08/21 01:39:36;;;;;;;5.80;1.42;;;;;;;18.02;100.00;94251.19;5056124;28;20033;-92
2022/08/21 01:42:03;;;;;;;1.98;1.17;;;;;;;17.98;100.00;94247.63;5056089;28;20032;-90
2022/08/21 01:44:28;;;;;;;2.15;1.25;;;;;;;18.08;100.00;94242.78;5056295;28;20040;-91
2022/08/21 01:46:55;;;;;;;1.83;1.00;;;;;;;18.08;100.00;94236.72;5056437;28;20442;-91
2022/08/21 01:49:20;;;;;;;4.00;1.30;;;;;;;18.48;100.00;94236.34;5056791;28;20335;-91
2022/08/21 01:51:46;;;;;;;1.92;1.30;;;;;;;18.73;100.00;94233.88;5056944;28;20111;-91
2022/08/21 01:54:11;;;;;;;2.45;1.10;;;;;;;18.55;100.00;94235.84;5059947;28;20020;-91
2022/08/21 01:56:43;;;;;;;1.17;0.93;;;;;;;18.51;100.00;94240.25;5058736;28;20028;-91
2022/08/21 01:59:09;;;;;;;1.30;1.02;;;;;;;18.40;100.00;94231.88;5058399;28;20021;-92
2022/08/21 02:01:35;;;;;;;3.00;1.40;;;;;;;18.19;100.00;94235.25;5059531;28;20071;-91
2022/08/21 02:04:01;;;;;;;1.83;1.10;;;;;;;18.00;100.00;94237.47;5059494;28;20506;-90
2022/08/21 02:06:27;;;;;;;2.33;1.20;;;;;;;17.80;100.00;94231.78;5058760;28;20120;-92
2022/08/21 02:08:52;;;;;;;3.20;1.17;;;;;;;17.87;100.00;94229.41;5059516;28;20075;-92
2022/08/21 02:11:18;;;;;;;2.33;1.42;;;;;;;17.73;100.00;94226.19;5059417;28;20104;-92
2022/08/21 02:13:44;;;;;;;1.98;1.20;;;;;;;17.69;100.00;94233.22;5058230;28;20016;-91
2022/08/21 02:16:10;;;;;;;1.70;1.20;;;;;;;17.65;100.00;94223.25;5058621;28;20031;-91
2022/08/21 02:18:36;;;;;;;1.92;1.30;;;;;;;17.69;100.00;94226.03;5058373;28;20029;-90
2022/08/21 02:21:01;;;;;;;1.52;1.17;;;;;;;17.69;100.00;94222.59;5058002;28;20021;-90
2022/08/21 02:23:27;;;;;;;1.63;1.00;;;;;;;17.58;100.00;94220.28;5059079;28;20057;-90
2022/08/21 02:25:57;;;;;;;2.20;1.20;;;;;;;17.52;100.00;94217.03;5058261;28;20111;-91
2022/08/21 02:28:22;;;;;;;1.95;1.42;;;;;;;17.50;100.00;94226.38;5058149;28;20131;-90
2022/08/21 02:30:49;;;;;;;5.82;1.20;;;;;;;17.60;100.00;94218.09;5041583;28;20119;-90
2022/08/21 02:33:15;;;;;;;3.17;1.40;;;;;;;17.56;100.00;94216.38;5057893;28;20021;-91
2022/08/21 02:35:42;;;;;;;6.32;1.30;;;;;;;17.58;100.00;94220.28;5057953;28;20028;-91
2022/08/21 02:38:14;;;;;;;2.78;1.10;;;;;;;17.91;100.00;94211.00;5058210;28;20032;-90
2022/08/21 02:40:41;;;;;;;4.00;1.33;;;;;;;17.89;100.00;94211.31;5058079;28;20032;-90
2022/08/21 02:43:07;;;;;;;1.98;1.17;;;;;;;17.89;100.00;94219.25;5041072;28;20127;-91
2022/08/21 02:45:34;;;;;;;3.45;1.13;;;;;;;17.71;100.00;94218.53;5058838;28;20518;-91
2022/08/21 02:48:02;;;;;;;2.85;1.00;;;;;;;17.65;100.00;94219.81;5057726;28;20085;-91
2022/08/21 02:50:31;;;;;;;1.55;1.30;;;;;;;17.46;100.00;94222.78;5057807;28;20078;-91
2022/08/21 02:52:57;;;;;;;7.35;1.42;;;;;;;17.52;100.00;94221.56;5057549;28;20021;-90
2022/08/21 02:55:26;;;;;;;4.53;1.40;;;;;;;17.47;100.00;94221.69;5057556;28;20105;-91
2022/08/21 02:57:52;;;;;;;1.15;0.98;;;;;;;17.57;100.00;94220.59;5057578;28;20029;-90
2022/08/21 03:00:19;;;;;;;1.00;0.90;;;;;;;17.69;100.00;94225.25;5057348;28;20024;-91
2022/08/21 03:02:46;;;;;;;1.40;0.95;;;;;;;17.59;100.00;94213.91;5058082;28;20025;-91
2022/08/21 03:05:12;;;;;;;1.80;1.20;;;;;;;17.64;100.00;94212.94;5057280;28;20032;-91
2022/08/21 03:07:38;;;;;;;3.95;1.20;;;;;;;17.64;100.00;94208.41;5057421;28;20429;-90
2022/08/21 03:10:06;;;;;;;1.80;1.15;;;;;;;17.66;100.00;94208.13;5058293;28;20025;-91
2022/08/21 03:12:31;;;;;;;1.65;1.25;;;;;;;17.90;100.00;94206.81;5057086;28;20051;-91
2022/08/21 03:14:57;;;;;;;1.48;1.10;;;;;;;18.35;100.00;94211.63;5057100;28;20035;-90
2022/08/21 03:17:24;;;;;;;1.38;1.10;;;;;;;18.63;100.00;94192.56;5058190;28;20029;-90
2022/08/21 03:19:50;;;;;;;1.67;1.25;;;;;;;18.67;100.00;94194.56;5058099;28;20028;-89
2022/08/21 03:22:17;;;;;;;1.47;1.10;;;;;;;18.75;100.00;94197.16;5056715;28;20172;-89
2022/08/21 03:24:42;;;;;;;3.53;1.25;;;;;;;18.91;100.00;94199.25;5057964;28;20504;-90
2022/08/21 03:27:08;;;;;;;1.50;0.90;;;;;;;19.02;100.00;94200.44;5057952;28;20029;-89
2022/08/21 03:29:33;;;;;;;1.88;1.00;;;;;;;18.95;100.00;94197.50;5058114;28;20033;-90
2022/08/21 03:31:59;;;;;;;1.50;1.10;;;;;;;18.75;100.00;94199.81;5056827;28;20428;-90
2022/08/21 03:34:24;;;;;;;1.63;1.17;;;;;;;18.55;100.00;94200.59;5056839;28;20796;-90
2022/08/21 03:36:50;;;;;;;3.22;1.10;;;;;;;18.30;100.00;94201.19;5056370;28;20112;-89
2022/08/21 03:42:38;;;;;;;2.35;1.17;;;;;;;17.83;100.00;94199.34;5057462;28;20044;-89
2022/08/21 03:45:04;;;;;;;1.95;1.20;;;;;;;17.73;100.00;94194.38;5056459;28;20347;-90
2022/08/21 03:47:30;;;;;;;1.60;1.20;;;;;;;17.63;100.00;94188.31;5039548;28;20052;-90
2022/08/21 03:49:55;;;;;;;1.48;1.20;;;;;;;17.54;100.00;94190.22;5056530;28;20033;-89
2022/08/21 03:52:21;;;;;;;2.88;1.50;;;;;;;17.48;100.00;94194.91;5039691;28;20056;-90
2022/08/21 03:54:47;;;;;;;1.83;1.10;;;;;;;17.46;100.00;94196.31;5056135;28;20036;-90
2022/08/21 03:57:14;;;;;;;2.90;1.10;;;;;;;17.41;100.00;94188.53;5057318;28;20052;-90
2022/08/21 03:59:40;;;;;;;5.82;1.40;;;;;;;17.34;100.00;94195.09;5057200;28;20029;-90
2022/08/21 04:02:06;;;;;;;2.25;1.00;;;;;;;17.32;100.00;94191.97;5057179;28;20397;-90
2022/08/21 04:04:33;;;;;;;4.65;1.13;;;;;;;17.33;100.00;94188.22;5055789;28;20047;-89
2022/08/21 04:06:59;;;;;;;2.03;1.10;;;;;;;17.36;100.00;94189.47;5056220;28;20035;-90
2022/08/21 04:09:25;;;;;;;1.60;1.02;;;;;;;17.30;100.00;94191.50;5023309;28;20212;-89
2022/08/21 04:11:50;;;;;;;3.58;1.13;;;;;;;17.37;100.00;94197.13;5039733;28;20029;-90
2022/08/21 04:14:17;;;;;;;1.50;1.10;;;;;;;17.31;100.00;94195.72;5055048;28;20078;-89
2022/08/21 04:16:43;;;;;;;1.00;0.85;;;;;;;17.32;100.00;94202.56;5056230;28;20435;-90
2022/08/21 04:19:09;;;;;;;1.25;1.08;;;;;;;17.35;100.00;94196.63;5055755;28;20029;-90
2022/08/21 04:21:37;;;;;;;1.90;1.17;;;;;;;17.44;100.00;94199.28;5039511;28;20465;-90
2022/08/21 04:24:04;;;;;;;3.00;1.27;;;;;;;17.48;100.00;94194.91;5056786;28;20033;-90
2022/08/21 04:26:30;;;;;;;2.72;1.38;;;;;;;17.63;100.00;94193.63;5055664;28;20044;-89
2022/08/21 04:28:57;;;;;;;1.42;1.02;;;;;;;17.70;100.00;94203.72;5055909;28;20493;-89
2022/08/21 04:31:23;;;;;;;1.75;1.10;;;;;;;17.67;100.00;94199.84;5055844;28;20029;-90
2022/08/21 04:33:49;;;;;;;2.17;1.00;;;;;;;17.76;100.00;94196.38;5039147;28;20024;-91
2022/08/21 04:36:14;;;;;;;1.30;1.05;;;;;;;17.64;100.00;94200.47;5055431;28;20036;-90
2022/08/21 04:38:40;;;;;;;2.10;1.30;;;;;;;17.52;100.00;94210.97;5039061;28;20091;-89
2022/08/21 04:41:06;;;;;;;2.50;1.15;;;;;;;17.55;100.00;94205.03;5056798;28;20025;-90
2022/08/21 04:43:33;;;;;;;1.27;0.98;;;;;;;17.73;100.00;94200.47;5038618;28;20039;-90
2022/08/21 04:46:00;;;;;;;1.60;1.10;;;;;;;17.95;100.00;94206.63;5055320;28;20060;-89
2022/08/21 04:48:26;;;;;;;5.53;1.17;;;;;;;18.16;100.00;94206.72;5039256;28;20346;-89
2022/08/21 04:50:54;;;;;;;4.05;1.30;;;;;;;18.20;100.00;94204.97;5038896;28;20090;-89
2022/08/21 04:53:31;;;;;;;3.38;0.98;;;;;;;17.98;100.00;94213.94;5056480;28;20035;-91
2022/08/21 04:56:01;;;;;;;2.40;1.20;;;;;;;17.87;100.00;94220.69;5038819;28;20429;-91
2022/08/21 04:58:27;;;;;;;1.50;1.00;;;;;;;17.84;100.00;94222.09;5038826;28;20095;-91
2022/08/21 05:00:57;;;;;;;2.05;0.90;;;;;;;17.74;100.00;94220.56;5055182;28;20025;-91
2022/08/21 05:03:23;;;;;;;2.80;1.20;;;;;;;17.76;100.00;94221.03;5022703;28;20110;-90
2022/08/21 05:05:49;;;;;;;9.73;1.25;;;;;;;17.64;100.00;94219.00;5052169;28;20029;-89
2022/08/21 05:08:19;;;;;;;0.95;0.85;;;;;;;17.74;100.00;94225.06;5024797;28;20351;-91
2022/08/21 05:11:09;;;;;;;2.13;1.13;;;;;;;17.79;100.00;94222.28;5035337;28;20029;-90
2022/08/21 05:13:34;;;;;;;1.75;1.10;;;;;;;17.89;100.00;94223.81;5035515;28;20037;-90
2022/08/21 05:16:00;;;;;;;2.10;1.23;;;;;;;17.93;100.00;94222.84;5035030;28;20036;-90
2022/08/21 05:18:26;;;;;;;1.50;1.10;;;;;;;17.95;100.00;94218.00;5038158;28;20649;-89
2022/08/21 05:20:53;;;;;;;5.25;1.13;;;;;;;18.00;100.00;94219.69;5035597;28;20025;-89
2022/08/21 05:23:18;;;;;;;2.10;1.15;;;;;;;18.12;100.00;94220.91;5019053;28;20076;-89
2022/08/21 05:25:44;;;;;;;1.58;1.05;;;;;;;18.18;100.00;94214.38;5019511;28;20415;-89
2022/08/21 05:28:10;;;;;;;1.55;1.08;;;;;;;18.30;100.00;94218.97;5039443;28;20116;-89
2022/08/21 05:30:36;;;;;;;1.58;1.10;;;;;;;18.42;100.00;94227.03;5022637;28;20064;-89
2022/08/21 05:33:03;;;;;;;1.48;1.00;;;;;;;18.51;100.00;94219.81;5038777;28;20033;-90
2022/08/21 05:35:30;;;;;;;1.92;1.10;;;;;;;18.56;100.00;94216.16;5022677;28;20040;-89
2022/08/21 05:37:56;;;;;;;2.08;0.95;;;;;;;18.73;100.00;94217.19;5055706;28;20033;-90
2022/08/21 05:40:23;;;;;;;4.72;1.75;;;;;;;18.88;100.00;94223.78;5022229;28;20037;-90
2022/08/21 05:42:50;;;;;;;1.42;0.90;;;;;;;19.00;100.00;94226.53;5039720;28;20458;-89
2022/08/21 05:45:16;;;;;;;1.13;1.00;;;;;;;19.23;100.00;94231.53;5055520;28;20377;-89
2022/08/21 05:47:42;;;;;;;1.20;0.90;;;;;;;19.23;100.00;94226.22;5039614;28;20454;-89
2022/08/21 05:50:08;;;;;;;2.60;0.90;;;;;;;19.44;100.00;94228.03;5021883;28;20033;-88
2022/08/21 05:52:33;;;;;;;1.35;1.08;;;;;;;19.58;100.00;94222.44;5021991;28;20033;-89
2022/08/21 05:54:59;;;;;;;1.20;1.00;;;;;;;19.74;100.00;94230.56;5022272;28;20423;-90
2022/08/21 05:57:25;;;;;;;2.10;1.10;;;;;;;19.69;100.00;94222.81;5038624;28;20029;-90
2022/08/21 05:59:51;;;;;;;2.47;1.15;;;;;;;19.61;100.00;94232.44;5038489;28;20112;-90
2022/08/21 06:02:20;;;;;;;1.80;1.15;;;;;;;19.60;100.00;94226.31;5038132;28;20457;-89
2022/08/21 06:04:46;;;;;;;1.30;1.02;;;;;;;19.78;100.00;94223.47;5038431;28;20029;-89
2022/08/21 06:07:11;;;;;;;1.33;0.93;;;;;;;20.05;100.00;94226.66;5021841;28;20025;-88
2022/08/21 06:09:37;;;;;;;2.13;1.00;;;;;;;20.24;100.00;94226.13;5037870;28;20028;-89
2022/08/21 06:12:12;;;;;;;1.45;0.85;;;;;;;20.37;100.00;94221.59;5039329;28;20021;-89
2022/08/21 06:14:39;;;;;;;1.95;1.10;;;;;;;20.58;100.00;94223.34;5039416;28;20018;-89
2022/08/21 06:17:10;;;;;;;0.93;0.80;;;;;;;20.67;100.00;94234.66;5039391;28;20025;-89
2022/08/21 06:19:36;;;;;;;1.55;1.02;;;;;;;20.57;100.00;94227.13;5039292;28;20055;-90
2022/08/21 06:22:02;;;;;;;2.97;1.10;;;;;;;20.71;100.00;94227.53;5038834;28;20071;-88
2022/08/21 06:24:28;;;;;;;5.18;1.20;;;;;;;20.57;100.00;94235.09;5039154;28;20462;-89
2022/08/21 06:26:54;;;;;;;1.30;0.95;;;;;;;20.61;100.00;94233.31;5039216;28;20021;-89
2022/08/21 06:29:19;;;;;;;1.20;1.10;;;;;;;20.47;100.00;94228.34;5039178;28;20049;-88
2022/08/21 06:31:46;;;;;;;2.30;1.15;;;;;;;20.62;100.00;94224.22;5037924;28;20051;-89
2022/08/21 06:34:14;;;;;;;1.58;1.10;;;;;;;20.61;100.00;94225.31;5037756;28;20333;-89
2022/08/21 06:36:39;;;;;;;1.70;1.10;;;;;;;20.72;100.00;94225.63;5039063;28;20021;-89
2022/08/21 06:39:04;;;;;;;3.00;0.95;;;;;;;20.76;100.00;94224.63;5038249;28;20052;-90
2022/08/21 06:41:30;;;;;;;1.45;1.00;;;;;;;20.79;100.00;94223.19;5038454;28;20481;-90
2022/08/21 06:43:56;;;;;;;1.10;1.00;;;;;;;20.78;100.00;94224.31;5038491;28;20427;-89
2022/08/21 06:46:25;;;;;;;1.13;1.00;;;;;;;20.77;100.00;94220.09;5038720;28;20029;-90
2022/08/21 06:48:51;;;;;;;3.38;1.15;;;;;;;20.85;100.00;94226.44;5038648;28;20021;-90
2022/08/21 06:51:17;;;;;;;1.20;1.05;;;;;;;20.74;100.00;94221.53;5037185;28;20116;-89
2022/08/21 06:53:43;;;;;;;1.40;1.15;;;;;;;20.79;100.00;94217.88;5021295;28;20021;-89
2022/08/21 06:56:09;;;;;;;1.67;1.20;;;;;;;20.97;100.00;94213.09;5037267;28;20021;-89
2022/08/21 06:58:35;;;;;;;2.63;1.17;;;;;;;21.05;100.00;94222.81;5037583;28;20116;-90
2022/08/21 07:01:00;;;;;;;3.17;1.02;;;;;;;21.14;100.00;94227.25;5038644;28;20025;-88
2022/08/21 07:03:31;;;;;;;5.43;1.23;;;;;;;21.33;100.00;94223.97;5038076;28;20116;-90
2022/08/21 07:05:59;;;;;;;1.20;1.10;;;;;;;21.41;100.00;94225.69;5038923;28;20025;-90
2022/08/21 07:08:26;;;;;;;1.10;0.95;;;;;;;21.53;100.00;94226.75;5038248;28;20029;-89
2022/08/21 07:10:53;;;;;;;2.35;1.25;;;;;;;21.41;100.00;94230.25;5037276;28;20052;-91
2022/08/21 07:13:19;;;;;;;3.63;1.20;;;;;;;21.67;100.00;94226.41;5038526;28;20041;-89
2022/08/21 07:15:44;;;;;;;1.13;0.90;;;;;;;21.60;100.00;94222.38;5038259;28;20056;-89
2022/08/21 07:18:11;;;;;;;2.42;1.17;;;;;;;21.72;100.00;94226.16;5038080;28;20075;-88
2022/08/21 07:20:37;;;;;;;1.88;0.95;;;;;;;21.84;100.00;94230.63;5038286;28;20029;-90
2022/08/21 07:23:05;;;;;;;1.10;0.90;;;;;;;21.88;100.00;94226.94;5036652;28;20142;-90
2022/08/21 07:25:31;;;;;;;3.00;1.13;;;;;;;21.92;100.00;94229.69;5037937;28;20350;-90
2022/08/21 07:27:56;;;;;;;1.50;1.00;;;;;;;21.88;100.00;94234.19;5036569;28;20114;-90
2022/08/21 07:30:23;;;;;;;2.00;1.10;;;;;;;21.99;100.00;94229.09;5037800;28;20061;-89
2022/08/21 07:32:50;;;;;;;0.80;0.80;;;;;;;22.04;100.00;94234.16;5037698;28;20029;-90
2022/08/21 07:35:17;;;;;;;4.57;1.08;;;;;;;22.18;100.00;94229.19;5036479;28;20087;-91
2022/08/21 07:37:42;;;;;;;5.72;1.10;;;;;;;22.14;100.00;94231.00;5020526;28;20025;-90
2022/08/21 07:40:08;;;;;;;3.53;1.20;;;;;;;22.16;100.00;94234.09;5037536;28;20082;-89
2022/08/21 07:42:34;;;;;;;1.60;1.00;;;;;;;22.11;100.00;94231.69;5036522;28;20029;-90
2022/08/21 07:44:59;;;;;;;2.13;0.98;;;;;;;22.18;100.00;94237.19;5036073;28;20036;-88
2022/08/21 07:47:25;;;;;;;1.90;0.95;;;;;;;22.28;100.00;94233.22;5036708;28;20037;-90
2022/08/21 07:49:50;;;;;;;1.75;1.10;;;;;;;22.45;100.00;94229.41;5035216;28;20037;-89
2022/08/21 07:52:16;;;;;;;1.50;1.00;;;;;;;22.58;100.00;94232.00;5037637;28;20036;-89
2022/08/21 07:54:41;;;;;;;2.10;1.20;;;;;;;22.71;100.00;94235.34;5036563;28;20029;-89
2022/08/21 07:57:07;;;;;;;1.63;1.00;;;;;;;22.87;100.00;94225.38;5037565;28;20032;-89
2022/08/21 07:59:33;;;;;;;3.05;1.20;;;;;;;22.90;100.00;94229.25;5036419;28;20064;-90
2022/08/21 08:01:58;;;;;;;2.75;1.00;;;;;;;23.13;100.00;94228.59;5035980;28;20037;-91
2022/08/21 08:04:27;;;;;;;2.58;1.10;;;;;;;23.06;100.00;94220.41;5037067;28;20079;-90
2022/08/21 08:06:53;;;;;;;1.15;0.80;;;;;;;23.23;100.00;94222.66;5035980;28;20451;-90
2022/08/21 08:09:25;;;;;;;1.95;1.00;;;;;;;23.45;100.00;94223.13;5035918;28;20070;-91
2022/08/21 08:11:51;;;;;;;2.92;1.20;;;;;;;23.64;100.00;94216.19;5037080;28;20048;-90
2022/08/21 08:14:16;;;;;;;1.20;0.95;;;;;;;23.73;100.00;94219.44;5035805;28;20088;-90
2022/08/21 08:16:45;;;;;;;1.45;0.70;;;;;;;23.88;100.00;94212.41;5035746;28;20446;-90
2022/08/21 08:19:10;;;;;;;1.02;0.93;;;;;;;23.90;100.00;94215.53;5035845;28;20033;-90
2022/08/21 08:21:38;;;;;;;4.53;1.00;;;;;;;23.97;100.00;94212.19;5035546;28;20499;-92
2022/08/21 08:24:04;;;;;;;2.03;1.00;;;;;;;23.89;100.00;94205.16;5036104;28;20137;-91
2022/08/21 08:26:30;;;;;;;2.80;0.98;;;;;;;24.03;100.00;94208.13;5035689;28;20478;-90
2022/08/21 08:28:55;;;;;;;1.00;0.90;;;;;;;24.18;100.00;94211.03;5035498;28;20033;-89
2022/08/21 08:31:21;;;;;;;2.35;0.98;;;;;;;24.24;100.00;94209.56;5035436;28;20025;-89
2022/08/21 08:33:54;;;;;;;2.92;1.10;;;;;;;24.19;100.00;94207.22;5037087;28;20029;-91
2022/08/21 08:36:20;;;;;;;3.45;1.00;;;;;;;24.23;100.00;94208.03;5036718;28;20029;-89
2022/08/21 08:38:47;;;;;;;3.28;0.98;;;;;;;24.32;100.00;94210.47;5035687;28;20613;-93
2022/08/21 08:41:18;;;;;;;4.07;1.13;;;;;;;24.47;100.00;94214.13;5019162;28;20355;-89
2022/08/21 08:43:50;;;;;;;2.35;0.80;;;;;;;24.24;100.00;94217.59;5035706;28;20453;-89
2022/08/21 08:46:21;;;;;;;1.25;0.98;;;;;;;24.46;100.00;94208.03;5035584;28;20182;-91
2022/08/21 08:49:02;;;;;;;1.00;0.90;;;;;;;24.63;100.00;94214.75;5019166;28;20040;-90
2022/08/21 08:52:01;;;;;;;4.20;1.10;;;;;;;24.69;99.45;94207.97;5035533;28;20056;-93
2022/08/21 08:54:34;;;;;;;1.63;1.15;;;;;;;24.76;100.00;94206.50;5011366;28;20090;-90
2022/08/21 08:57:02;;;;;;;1.23;1.00;;;;;;;24.70;100.00;94204.16;5036799;28;20025;-90
2022/08/21 09:00:02;;;;;;;1.10;1.00;;;;;;;24.89;100.00;94204.38;5035249;28;20350;-90
2022/08/21 09:02:28;;;;;;;1.48;1.05;;;;;;;24.79;94.20;94203.91;5040726;28;20033;-90
2022/08/21 09:04:54;;;;;;;3.97;1.20;;;;;;;24.79;98.25;94201.22;5039405;28;20036;-91
2022/08/21 09:07:47;;;;;;;1.55;0.80;;;;;;;24.92;100.00;94199.09;5039351;28;20029;-90
2022/08/21 09:10:27;;;;;;;2.08;0.95;;;;;;;24.98;98.30;94197.66;5039281;28;20071;-91
2022/08/21 09:13:19;;;;;;;1.40;1.00;;;;;;;24.75;95.90;94196.91;5040943;28;20041;-90
2022/08/21 09:16:00;;;;;;;1.08;0.90;;;;;;;25.00;93.30;94194.59;5040023;28;20038;-90
2022/08/21 09:18:34;;;;;;;1.33;0.82;;;;;;;25.17;93.50;94198.63;5040195;28;20394;-90
2022/08/21 09:21:12;;;;;;;1.42;1.00;;;;;;;25.25;93.46;94194.13;5040265;28;20030;-89
2022/08/21 09:23:52;;;;;;;1.05;0.77;;;;;;;25.13;90.62;94193.22;5040163;28;20087;-92
2022/08/21 09:26:24;;;;;;;2.55;1.10;;;;;;;25.06;91.42;94192.34;5039248;28;20124;-90
2022/08/21 09:28:55;;;;;;;1.20;1.08;;;;;;;25.29;93.63;94194.16;5041231;28;20525;-94
2022/08/21 09:31:41;;;;;;;1.27;0.93;;;;;;;25.39;90.32;94191.59;5023556;28;20037;-92
2022/08/21 09:34:13;;;;;;;7.47;1.45;;;;;;;25.36;88.37;94186.97;5044817;28;20075;-92
2022/08/21 09:36:41;;;;;;;1.42;1.00;;;;;;;25.14;87.23;94177.91;5031521;28;20045;-93
2022/08/21 09:39:09;;;;;;;1.17;0.95;;;;;;;25.20;89.29;94184.47;5044661;28;20075;-92
2022/08/21 09:41:35;;;;;;;1.63;1.20;;;;;;;25.43;86.26;94180.91;5039929;28;20026;-92
2022/08/21 09:44:02;;;;;;;1.10;0.88;;;;;;;25.58;80.95;94192.56;5040048;28;20494;-91
2022/08/21 09:46:28;;;;;;;1.48;1.02;;;;;;;25.60;82.27;94182.25;5039047;28;20538;-90
2022/08/21 09:48:59;;;;;;;6.50;1.10;;;;;;;25.83;80.27;94181.31;5038981;28;20132;-94
2022/08/21 09:51:27;;;;;;;2.47;1.02;;;;;;;26.07;81.92;94176.53;5023080;28;20037;-92
2022/08/21 09:54:05;;;;;;;2.17;1.10;;;;;;;26.01;77.19;94178.00;5041123;28;20037;-93
2022/08/21 09:59:31;;;;;;;1.10;0.77;;;;;;;26.32;87.51;94184.78;5038830;28;20056;-92
2022/08/21 10:02:01;;;;;;;4.78;1.00;;;;;;;26.32;72.49;94168.69;5042355;28;20454;-90
2022/08/21 10:04:35;;;;;;;1.83;0.90;;;;;;;26.59;77.69;94168.47;5058127;28;20037;-90
2022/08/21 10:07:14;;;;;;;1.13;0.90;;;;;;;26.74;71.08;94171.22;5055325;28;20094;-90
2022/08/21 10:09:40;;;;;;;1.67;1.00;;;;;;;26.59;67.17;94178.44;5030442;28;20119;-92
2022/08/21 10:12:10;;;;;;;1.40;1.00;;;;;;;26.57;64.79;94173.44;5057532;28;20044;-91
2022/08/21 10:14:51;;;;;;;0.98;0.88;;;;;;;26.58;60.53;94163.47;5058018;28;20427;-91
2022/08/21 10:17:28;;;;;;;1.42;1.20;;;;;;;26.18;66.52;94172.06;5058468;28;20533;-90
2022/08/21 10:20:04;;;;;;;1.58;1.00;;;;;;;26.84;63.76;94159.00;5059326;28;20021;-90
2022/08/21 10:23:01;;;;;;;1.23;0.90;;;;;;;27.01;63.33;94161.00;5058471;28;20087;-91
2022/08/21 10:25:35;;;;;;;2.13;0.90;;;;;;;26.74;63.39;94157.78;5058084;28;20051;-91
2022/08/21 10:28:17;;;;;;;1.63;1.00;;;;;;;26.29;59.17;94161.38;5058001;28;20025;-90
2022/08/21 10:31:08;;;;;;;1.08;0.88;;;;;;;26.51;58.00;94164.19;5058168;28;20407;-91
2022/08/21 10:33:41;;;;;;;1.65;1.10;;;;;;;26.76;60.10;94155.50;5057982;28;20024;-91
2022/08/21 10:36:26;;;;;;;1.50;1.10;;;;;;;26.68;61.72;94150.09;5059163;28;20035;-91
2022/08/21 10:39:30;;;;;;;1.20;0.88;;;;;;;26.68;59.82;94157.38;5058981;28;20069;-91
2022/08/21 10:42:49;;;;;;;1.05;0.93;;;;;;;26.79;54.26;94149.38;5000866;28;20041;-90
2022/08/21 10:45:19;;;;;;;4.10;0.90;;;;;;;27.33;55.47;94154.19;4942835;29;20164;-91
2022/08/21 10:47:51;;;;;;;3.22;0.80;;;;;;;27.52;52.50;94147.72;5050133;28;20365;-92
2022/08/21 10:50:22;;;;;;;2.25;0.85;;;;;;;27.61;54.82;94147.38;5057486;28;20056;-92
2022/08/21 10:53:00;;;;;;;0.88;0.75;;;;;;;27.51;55.20;94144.22;5057632;28;20043;-92
2022/08/21 10:55:50;;;;;;;0.95;0.88;;;;;;;27.44;55.57;94138.06;5057909;28;20033;-92
2022/08/21 10:58:26;;;;;;;1.23;1.02;;;;;;;27.26;55.70;94138.03;5057333;28;20044;-92
2022/08/21 11:00:57;;;;;;;1.40;1.08;;;;;;;27.21;54.26;94142.63;5041289;28;20115;-93
2022/08/21 11:03:33;;;;;;;1.05;0.80;;;;;;;27.36;56.36;94143.44;5040911;28;20404;-92
2022/08/21 11:06:09;;;;;;;1.67;0.70;;;;;;;27.73;53.99;94136.22;5057342;28;20082;-92
2022/08/21 11:08:49;;;;;;;1.10;0.93;;;;;;;28.15;53.75;94136.59;5058929;28;20033;-91
2022/08/21 11:11:20;;;;;;;3.72;0.90;;;;;;;28.52;56.65;94137.31;5041411;28;20035;-92
2022/08/21 11:14:01;;;;;;;3.78;0.80;;;;;;;28.36;59.46;94133.13;5057710;28;20060;-92
2022/08/21 11:16:37;;;;;;;1.00;0.80;;;;;;;28.39;52.21;94120.03;5037052;28;20384;-91
2022/08/21 11:19:17;;;;;;;1.20;1.05;;;;;;;28.62;58.07;94122.28;5057238;28;20024;-92
2022/08/21 11:21:54;;;;;;;1.30;1.10;;;;;;;28.76;53.17;94121.47;5056762;28;20033;-91
2022/08/21 11:24:35;;;;;;;2.15;1.00;;;;;;;28.81;55.88;94121.09;5040123;28;20123;-91
2022/08/21 11:27:20;;;;;;;2.63;1.10;;;;;;;28.74;51.67;94119.16;5057153;28;20035;-91
2022/08/21 11:29:51;;;;;;;1.90;1.05;;;;;;;28.49;52.40;94116.56;5040349;28;20033;-90
2022/08/21 11:32:38;;;;;;;1.45;1.00;;;;;;;28.28;57.40;94120.06;5040558;28;20319;-92
2022/08/21 11:35:27;;;;;;;1.60;0.90;;;;;;;28.08;56.82;94110.44;5057142;28;20036;-90
2022/08/21 11:37:56;;;;;;;3.72;1.10;;;;;;;28.38;57.95;94113.91;5056938;28;20040;-92
2022/08/21 11:41:10;;;;;;;1.15;0.90;;;;;;;28.35;56.33;94109.28;5056922;28;20346;-92
2022/08/21 11:43:46;;;;;;;;;;;;;;;28.39;54.20;94112.75;5057161;28;20037;-91